Date,TemperatureHighF,TemperatureAvgF,TemperatureLowF,DewpointHighF,DewpointAvgF,DewpointLowF,HumidityHigh,HumidityAvg,HumidityLow,PressureMaxIn,PressureMinIn,WindSpeedMaxMPH,WindSpeedAvgMPH,GustSpeedMaxMPH,PrecipitationSumIn
2013-1-1,61,53,46,60,51,42,98,94,88,0.00,40.00,9,5,15,2.60
2013-1-2,45,43,42,42,38,37,90,84,78,0.00,40.00,7,4,13,0.01
2013-1-3,53,43,38,38,35,31,93,75,46,0.00,40.00,7,3,15,0.00
2013-1-4,49,43,36,36,33,31,88,69,52,0.00,40.00,5,2,9,0.00
2013-1-5,44,42,41,42,40,36,97,92,73,0.00,40.00,4,2,7,0.60
2013-1-6,56,45,34,42,40,32,97,85,56,0.00,40.00,7,4,15,0.06
2013-1-7,57,42,30,42,36,29,98,82,43,0.00,40.00,5,2,10,0.01
2013-1-8,62,51,42,61,49,40,98,94,81,0.00,40.00,10,3,19,0.43
2013-1-9,65,63,61,64,62,60,98,97,94,0.00,40.00,7,4,13,3.59
2013-1-10,65,63,61,64,62,58,99,95,86,0.00,40.00,9,5,16,4.04
2013-1-11,73,62,47,66,54,47,99,81,48,0.00,40.00,6,2,12,0.24
2013-1-12,75,72,67,71,68,66,99,88,75,0.00,40.00,13,8,24,0.27
2013-1-13,72,55,44,68,52,40,97,91,81,0.00,40.00,12,8,23,0.88
2013-1-14,44,38,35,40,35,32,94,88,79,0.00,40.00,8,6,18,0.06
2013-1-15,35,34,33,33,33,32,96,94,90,0.00,40.00,7,5,13,0.38
2013-1-16,38,35,32,37,34,31,97,93,82,0.00,40.00,7,4,12,0.23
2013-1-17,57,41,28,38,31,24,97,73,33,0.00,40.00,8,3,15,0.01
2013-1-18,59,40,28,37,29,20,97,73,23,0.00,40.00,4,1,9,0.01
2013-1-19,62,42,28,40,34,27,96,76,33,0.00,40.00,7,1,10,0.00
2013-1-20,66,47,32,51,39,31,97,79,40,0.00,40.00,5,1,10,0.00
2013-1-21,67,50,37,50,42,36,98,78,46,0.00,40.00,6,2,12,0.00
2013-1-22,66,48,37,45,37,31,96,70,43,0.00,40.00,5,2,10,0.00
2013-1-23,73,57,40,53,47,39,98,75,39,0.00,40.00,9,4,16,0.00
2013-1-24,73,62,50,61,57,49,98,86,65,0.00,40.00,8,4,14,0.00
2013-1-25,76,66,58,61,58,55,97,78,48,0.00,40.00,13,7,24,0.00
2013-1-26,73,62,55,61,58,52,98,87,59,0.00,40.00,6,2,12,0.00
2013-1-27,74,62,46,62,55,45,98,81,57,0.00,40.00,9,4,19,0.00
2013-1-28,74,69,64,65,63,61,90,82,69,0.00,40.00,11,6,19,0.00
2013-1-29,76,71,67,70,66,64,94,86,70,0.00,40.00,16,10,35,0.40
2013-1-30,71,53,35,68,41,28,97,68,37,0.00,40.00,15,6,32,0.70
2013-1-31,63,54,33,33,28,21,95,41,20,0.00,40.00,9,6,17,0.00